Time;durP1;ratioP1;P1;durP2;ratioP2;P2;SDS_P1;SDS_P2;PMS_P1;PMS_P2;Temp;Humidity;BMP_temperature;BMP_pressure;BME280_temperature;BME280_humidity;BME280_pressure;Samples;Min_cycle;Max_cycle;Signal;HPM_P1;HPM_P2
2022/07/15 00:02:42;;;;;;;;;;;;;;;20.56;49.07;99903.50;1362625;95;20384;-83
2022/07/15 00:05:09;;;;;;;;;;;;;;;20.56;48.83;99896.78;1378219;94;20344;-83
2022/07/15 00:07:35;;;;;;;;;;;;;;;20.57;48.83;99896.25;1358130;94;20757;-83
2022/07/15 00:10:20;;;;;;;;;;;;;;;20.57;48.78;99890.88;1372719;94;20324;-82
2022/07/15 00:12:49;;;;;;;;;;;;;;;20.55;48.58;99888.44;1369241;95;20296;-83
2022/07/15 00:15:16;;;;;;;;;;;;;;;20.51;48.69;99887.20;1367293;95;20346;-83
2022/07/15 00:17:42;;;;;;;;;;;;;;;20.51;48.74;99880.48;1370522;94;20348;-83
2022/07/15 00:20:10;;;;;;;;;;;;;;;20.51;48.55;99875.09;1375072;94;20400;-82
2022/07/15 00:22:37;;;;;;;;;;;;;;;20.50;48.99;99867.56;1374303;95;20313;-82
2022/07/15 00:25:04;;;;;;;;;;;;;;;20.50;48.72;99870.78;1373098;95;20342;-82
2022/07/15 00:27:29;;;;;;;;;;;;;;;20.48;48.85;99867.48;1371490;95;20290;-83
2022/07/15 00:29:55;;;;;;;;;;;;;;;20.47;49.56;99873.92;1366941;95;20335;-83
2022/07/15 00:32:21;;;;;;;;;;;;;;;20.44;49.51;99873.03;1408006;88;21166;-83
2022/07/15 00:34:48;;;;;;;;;;;;;;;20.43;49.69;99867.37;1438186;91;20285;-83
2022/07/15 00:37:14;;;;;;;;;;;;;;;20.43;49.46;99865.50;1435213;90;20466;-84
2022/07/15 00:39:39;;;;;;;;;;;;;;;20.45;49.46;99870.63;1447228;89;20284;-84
2022/07/15 00:42:05;;;;;;;;;;;;;;;20.45;49.35;99881.38;1454435;90;20896;-84
2022/07/15 00:44:34;;;;;;;;;;;;;;;20.46;49.02;99868.27;1444531;90;20294;-84
2022/07/15 00:47:00;;;;;;;;;;;;;;;20.48;48.96;99878.23;1448378;90;21025;-85
2022/07/15 00:49:26;;;;;;;;;;;;;;;20.48;48.77;99876.40;1448231;90;20313;-85
2022/07/15 00:52:01;;;;;;;;;;;;;;;20.48;49.01;99873.71;1435964;89;20352;-84
2022/07/15 00:54:39;;;;;;;;;;;;;;;20.46;49.06;99877.14;1422006;91;20352;-83
2022/07/15 00:57:05;;;;;;;;;;;;;;;20.46;48.89;99881.70;1429244;89;20588;-83
2022/07/15 00:59:33;;;;;;;;;;;;;;;20.43;48.95;99884.84;1457711;89;20894;-83
2022/07/15 01:01:59;;;;;;;;;;;;;;;20.41;49.36;99886.39;1439844;91;20264;-83
2022/07/15 01:04:27;;;;;;;;;;;;;;;20.40;49.37;99886.11;1441104;90;21662;-83
2022/07/15 01:06:53;;;;;;;;;;;;;;;20.40;49.04;99890.14;1433516;90;20294;-82
2022/07/15 01:09:20;;;;;;;;;;;;;;;20.42;48.72;99891.23;1437580;90;20558;-82
2022/07/15 01:11:47;;;;;;;;;;;;;;;20.43;49.38;99894.25;1438356;91;20837;-82
2022/07/15 01:14:13;;;;;;;;;;;;;;;20.42;49.37;99897.44;1432708;91;20285;-82
2022/07/15 01:16:40;;;;;;;;;;;;;;;20.42;50.53;99891.23;1436080;91;20301;-82
2022/07/15 01:19:07;;;;;;;;;;;;;;;20.37;50.68;99891.09;1426715;91;20308;-81
2022/07/15 01:21:33;;;;;;;;;;;;;;;20.31;51.11;99908.11;1425075;91;20330;-83
2022/07/15 01:24:00;;;;;;;;;;;;;;;20.26;51.12;99923.05;1427127;91;20286;-82
2022/07/15 01:26:25;;;;;;;;;;;;;;;20.23;52.21;99922.16;1434202;91;20770;-82
2022/07/15 01:28:51;;;;;;;;;;;;;;;20.19;51.31;99924.16;1441814;90;20298;-82
2022/07/15 01:31:17;;;;;;;;;;;;;;;20.17;51.92;99925.73;1449126;90;20293;-82
2022/07/15 01:33:43;;;;;;;;;;;;;;;20.18;51.87;99924.69;1466608;88;20395;-82
2022/07/15 01:36:10;;;;;;;;;;;;;;;20.20;51.91;99929.85;1440861;90;20332;-82
2022/07/15 01:38:36;;;;;;;;;;;;;;;20.20;51.75;99927.98;1399414;92;20830;-82
2022/07/15 01:41:03;;;;;;;;;;;;;;;20.15;52.64;99943.94;1434721;91;20309;-82
2022/07/15 01:43:29;;;;;;;;;;;;;;;20.14;51.73;99950.36;1455002;89;20350;-82
2022/07/15 01:45:55;;;;;;;;;;;;;;;20.14;51.56;99958.42;1435721;90;20322;-83
2022/07/15 01:51:06;;;;;;;;;;;;;;;19.94;53.75;100020.88;1457311;89;20275;-83
2022/07/15 01:53:32;;;;;;;;;;;;;;;19.91;54.04;100029.37;1455283;89;20599;-83
2022/07/15 01:55:58;;;;;;;;;;;;;;;19.95;54.10;100017.98;1435639;90;20937;-83
2022/07/15 01:58:24;;;;;;;;;;;;;;;19.98;54.15;100024.26;1454374;90;20305;-83
2022/07/15 02:00:50;;;;;;;;;;;;;;;20.00;54.56;100025.39;1452754;89;20388;-83
2022/07/15 02:03:16;;;;;;;;;;;;;;;20.01;54.16;100010.39;1441765;89;20338;-84
2022/07/15 02:05:42;;;;;;;;;;;;;;;20.02;53.89;99997.77;1412930;91;20946;-83
2022/07/15 02:08:09;;;;;;;;;;;;;;;20.04;53.66;100006.44;1428046;91;20294;-83
2022/07/15 02:10:41;;;;;;;;;;;;;;;20.06;53.95;100005.71;1425171;91;20369;-82
2022/07/15 02:13:08;;;;;;;;;;;;;;;20.08;54.46;100012.19;1431268;90;20902;-83
2022/07/15 02:15:35;;;;;;;;;;;;;;;20.13;54.73;100006.98;1431333;91;20323;-82
2022/07/15 02:18:01;;;;;;;;;;;;;;;20.15;54.23;100016.47;1429911;90;20338;-83
2022/07/15 02:20:28;;;;;;;;;;;;;;;20.21;55.73;100016.93;1431385;91;20556;-82
2022/07/15 02:22:57;;;;;;;;;;;;;;;20.26;56.13;100014.41;1432891;90;21487;-82
2022/07/15 02:25:22;;;;;;;;;;;;;;;20.29;55.80;100015.31;1427494;91;20910;-83
2022/07/15 02:27:48;;;;;;;;;;;;;;;20.34;57.22;100022.72;1436068;90;20375;-83
2022/07/15 02:30:13;;;;;;;;;;;;;;;20.38;56.47;100022.56;1419303;91;20301;-84
2022/07/15 02:32:40;;;;;;;;;;;;;;;20.41;57.93;100018.61;1423449;91;21042;-84
2022/07/15 02:35:08;;;;;;;;;;;;;;;20.42;57.86;100030.47;1429184;91;20333;-84
2022/07/15 02:37:34;;;;;;;;;;;;;;;20.44;59.21;100039.67;1427639;91;20409;-83
2022/07/15 02:40:00;;;;;;;;;;;;;;;20.45;60.03;100042.12;1426875;91;20341;-83
2022/07/15 02:42:26;;;;;;;;;;;;;;;20.51;60.33;100037.23;1417451;92;20395;-86
2022/07/15 02:44:52;;;;;;;;;;;;;;;20.55;60.33;100028.22;1420068;92;20574;-86
2022/07/15 02:47:18;;;;;;;;;;;;;;;20.59;60.44;100025.38;1427564;92;20310;-86
2022/07/15 02:49:44;;;;;;;;;;;;;;;20.61;60.22;100015.23;1427612;92;20318;-87
2022/07/15 02:52:10;;;;;;;;;;;;;;;20.61;60.91;100003.13;1416709;92;20304;-86
2022/07/15 02:54:35;;;;;;;;;;;;;;;20.67;60.08;99998.20;1426010;92;20564;-86
2022/07/15 02:57:01;;;;;;;;;;;;;;;20.72;60.27;100001.04;1417570;92;20295;-86
2022/07/15 02:59:27;;;;;;;;;;;;;;;20.73;61.12;100008.05;1419460;92;20288;-84
2022/07/15 03:01:53;;;;;;;;;;;;;;;20.78;60.88;100007.39;1388260;92;20480;-85
2022/07/15 03:04:19;;;;;;;;;;;;;;;20.80;60.52;100012.53;1454436;89;20324;-86
2022/07/15 03:06:45;;;;;;;;;;;;;;;20.83;60.50;100018.30;1420848;91;20853;-84
2022/07/15 03:09:11;;;;;;;;;;;;;;;20.83;61.02;100012.92;1434765;90;20354;-84
2022/07/15 03:11:37;;;;;;;;;;;;;;;20.87;60.22;100002.53;1430672;90;20292;-85
2022/07/15 03:14:03;;;;;;;;;;;;;;;20.85;61.25;99986.60;1445657;90;21273;-86
2022/07/15 03:16:29;;;;;;;;;;;;;;;20.88;61.05;99953.06;1437479;90;20359;-86
2022/07/15 03:18:55;;;;;;;;;;;;;;;20.87;62.74;99944.17;1444375;90;20271;-86
2022/07/15 03:21:21;;;;;;;;;;;;;;;20.81;63.17;99933.52;1424948;91;20287;-86
2022/07/15 03:23:47;;;;;;;;;;;;;;;20.77;62.50;99940.37;1420006;89;20285;-86
2022/07/15 03:26:13;;;;;;;;;;;;;;;20.69;63.88;99959.00;1392151;90;20259;-86
2022/07/15 03:28:39;;;;;;;;;;;;;;;20.65;63.64;99965.86;1432628;90;20882;-85
2022/07/15 03:31:05;;;;;;;;;;;;;;;20.61;63.75;99960.11;1431335;90;20408;-85
2022/07/15 03:33:31;;;;;;;;;;;;;;;20.61;63.34;99980.28;1424646;90;20303;-85
2022/07/15 03:35:57;;;;;;;;;;;;;;;20.60;61.48;99992.09;1443312;90;20858;-85
2022/07/15 03:38:23;;;;;;;;;;;;;;;20.58;63.44;99991.48;1404993;91;21030;-85
2022/07/15 03:40:49;;;;;;;;;;;;;;;20.57;63.93;99987.66;1430492;90;20334;-85
2022/07/15 03:43:15;;;;;;;;;;;;;;;20.52;64.97;99999.06;1443227;89;20316;-83
2022/07/15 03:45:41;;;;;;;;;;;;;;;20.49;63.58;100001.67;1456466;89;20352;-84
2022/07/15 03:48:08;;;;;;;;;;;;;;;20.47;64.57;100000.25;1435618;89;20302;-85
2022/07/15 03:50:35;;;;;;;;;;;;;;;20.46;64.87;99990.03;1431598;91;20465;-85
2022/07/15 03:53:01;;;;;;;;;;;;;;;20.46;63.41;99972.55;1424912;89;20303;-85
2022/07/15 03:55:27;;;;;;;;;;;;;;;20.45;64.12;99985.67;1456383;89;20336;-84
2022/07/15 03:57:52;;;;;;;;;;;;;;;20.45;62.97;99990.23;1458776;89;20411;-84
2022/07/15 04:00:18;;;;;;;;;;;;;;;20.45;63.88;99994.27;1415268;89;20441;-84
2022/07/15 04:02:44;;;;;;;;;;;;;;;20.45;63.38;100000.98;1425845;91;20771;-84
2022/07/15 04:05:10;;;;;;;;;;;;;;;20.48;63.30;100001.88;1427004;89;20421;-84
2022/07/15 04:07:36;;;;;;;;;;;;;;;20.51;64.27;100001.44;1454286;89;20968;-84
2022/07/15 04:10:02;;;;;;;;;;;;;;;20.53;61.71;100000.73;1440788;89;20363;-83
2022/07/15 04:12:29;;;;;;;;;;;;;;;20.56;62.45;100013.72;1435803;89;20248;-83
2022/07/15 04:14:55;;;;;;;;;;;;;;;20.59;62.57;100007.90;1432309;89;20310;-85
2022/07/15 04:17:21;;;;;;;;;;;;;;;20.63;62.90;100010.45;1442612;89;20330;-84
2022/07/15 04:19:47;;;;;;;;;;;;;;;20.68;61.87;100014.62;1431384;89;20303;-85
2022/07/15 04:22:13;;;;;;;;;;;;;;;20.75;61.48;100025.84;1466510;89;20923;-85
2022/07/15 04:24:39;;;;;;;;;;;;;;;20.79;62.46;100044.52;1429021;89;20367;-85
2022/07/15 04:27:05;;;;;;;;;;;;;;;20.81;61.46;100050.50;1448315;89;20306;-86
2022/07/15 04:29:31;;;;;;;;;;;;;;;20.82;63.01;100052.12;1439643;89;20398;-86
2022/07/15 04:31:57;;;;;;;;;;;;;;;20.84;62.01;100060.80;1439222;89;20378;-86
2022/07/15 04:34:23;;;;;;;;;;;;;;;20.85;61.20;100062.44;1451675;89;20222;-85
2022/07/15 04:36:51;;;;;;;;;;;;;;;20.84;61.02;100053.55;1440544;89;20862;-86
2022/07/15 04:39:17;;;;;;;;;;;;;;;20.87;60.96;100054.98;1462248;89;20368;-85
2022/07/15 04:41:43;;;;;;;;;;;;;;;20.89;61.37;100049.67;1416580;91;20330;-84
2022/07/15 04:44:09;;;;;;;;;;;;;;;20.91;61.57;100048.09;1416016;89;20957;-85
2022/07/15 04:46:35;;;;;;;;;;;;;;;20.92;61.46;100047.06;1444474;89;20302;-85
2022/07/15 04:51:45;;;;;;;;;;;;;;;20.90;60.77;100066.10;1448658;89;20878;-84
2022/07/15 04:54:11;;;;;;;;;;;;;;;20.88;61.36;100071.41;1455385;89;20390;-85
2022/07/15 04:56:37;;;;;;;;;;;;;;;20.86;60.98;100078.86;1435179;89;20322;-83
2022/07/15 04:59:03;;;;;;;;;;;;;;;20.84;63.23;100076.94;1442873;89;20272;-84
2022/07/15 05:01:28;;;;;;;;;;;;;;;20.84;63.11;100081.80;1445161;89;20299;-83
2022/07/15 05:03:54;;;;;;;;;;;;;;;20.84;64.40;100094.42;1454747;88;20538;-83
2022/07/15 05:06:20;;;;;;;;;;;;;;;20.83;63.81;100108.89;1452892;88;20280;-83
2022/07/15 05:08:46;;;;;;;;;;;;;;;20.81;66.90;100127.14;1456267;89;20299;-82
2022/07/15 05:11:16;;;;;;;;;;;;;;;20.72;69.89;100154.84;1461144;89;20265;-82
2022/07/15 05:13:42;;;;;;;;;;;;;;;20.67;71.70;100177.00;1435866;89;20284;-83
2022/07/15 05:16:08;;;;;;;;;;;;;;;20.68;70.43;100157.66;1446097;88;20323;-83
2022/07/15 05:18:34;;;;;;;;;;;;;;;20.75;69.89;100142.83;1432323;89;20226;-86
2022/07/15 05:21:00;;;;;;;;;;;;;;;20.81;68.39;100125.80;1437594;89;20331;-85
2022/07/15 05:23:26;;;;;;;;;;;;;;;20.88;68.48;100121.16;1429689;90;20286;-84
2022/07/15 05:25:52;;;;;;;;;;;;;;;20.93;69.03;100124.02;1437380;89;20286;-83
2022/07/15 05:28:18;;;;;;;;;;;;;;;20.93;68.34;100130.21;1435480;89;20228;-83
2022/07/15 05:30:44;;;;;;;;;;;;;;;20.85;69.48;100156.58;1439533;89;20316;-82
2022/07/15 05:33:10;;;;;;;;;;;;;;;20.83;68.31;100151.93;1465864;89;20835;-83
2022/07/15 05:35:36;;;;;;;;;;;;;;;20.85;67.14;100147.16;1456860;88;20250;-83
2022/07/15 05:38:02;;;;;;;;;;;;;;;20.85;69.12;100160.08;1446383;88;20492;-85
2022/07/15 05:40:29;;;;;;;;;;;;;;;20.80;69.75;100157.75;1412179;92;20328;-85
2022/07/15 05:42:55;;;;;;;;;;;;;;;20.79;68.46;100163.66;1416000;92;20397;-83
2022/07/15 05:45:21;;;;;;;;;;;;;;;20.79;69.46;100156.12;1424944;92;20387;-84
2022/07/15 05:47:48;;;;;;;;;;;;;;;20.74;69.11;100155.42;1418213;92;20803;-83
2022/07/15 05:50:15;;;;;;;;;;;;;;;20.74;71.46;100140.63;1412511;92;20274;-84
2022/07/15 05:52:41;;;;;;;;;;;;;;;20.70;72.62;100152.36;1428694;92;20349;-84
2022/07/15 05:55:07;;;;;;;;;;;;;;;20.66;70.70;100156.55;1414478;92;20862;-84
2022/07/15 05:57:33;;;;;;;;;;;;;;;20.65;69.73;100118.58;1418704;92;21161;-84
2022/07/15 05:59:59;;;;;;;;;;;;;;;20.74;69.21;100112.39;1415971;92;20379;-83
2022/07/15 06:02:25;;;;;;;;;;;;;;;20.78;70.36;100098.01;1406930;92;20378;-86
2022/07/15 06:04:51;;;;;;;;;;;;;;;20.80;71.19;100092.70;1411204;92;20299;-86
2022/07/15 06:07:17;;;;;;;;;;;;;;;20.81;72.93;100090.31;1430487;89;20429;-85
2022/07/15 06:09:43;;;;;;;;;;;;;;;20.83;72.20;100091.41;1456621;89;21461;-87
2022/07/15 06:12:09;;;;;;;;;;;;;;;20.90;71.08;100082.23;1455855;89;20277;-85
2022/07/15 06:14:36;;;;;;;;;;;;;;;20.98;71.56;100087.86;1434644;89;21470;-86
2022/07/15 06:17:02;;;;;;;;;;;;;;;20.98;73.17;100099.96;1440642;91;20633;-85
2022/07/15 06:19:28;;;;;;;;;;;;;;;21.07;72.23;100103.17;1436279;91;20499;-86
2022/07/15 06:21:56;;;;;;;;;;;;;;;21.16;71.64;100095.91;1441722;91;20850;-86
2022/07/15 06:24:23;;;;;;;;;;;;;;;21.30;70.91;100090.38;1446175;89;20300;-86
2022/07/15 06:26:49;;;;;;;;;;;;;;;21.45;72.86;100092.70;1456723;89;20353;-85
2022/07/15 06:29:14;;;;;;;;;;;;;;;21.50;73.25;100103.09;1455639;89;20360;-85
2022/07/15 06:31:40;;;;;;;;;;;;;;;21.60;71.86;100099.31;1459949;89;20390;-86
2022/07/15 06:34:06;;;;;;;;;;;;;;;21.66;72.08;100091.37;1466534;89;20293;-84
2022/07/15 06:36:32;;;;;;;;;;;;;;;21.70;72.36;100100.12;1467371;88;20410;-85
2022/07/15 06:38:58;;;;;;;;;;;;;;;21.65;71.92;100119.37;1463590;89;20381;-85
2022/07/15 06:41:25;;;;;;;;;;;;;;;21.73;74.28;100125.25;1472478;89;20300;-85
2022/07/15 06:43:51;;;;;;;;;;;;;;;21.77;75.62;100139.08;1463330;89;20308;-85
2022/07/15 06:46:16;;;;;;;;;;;;;;;21.87;73.29;100152.84;1463138;89;20874;-86
2022/07/15 06:48:42;;;;;;;;;;;;;;;21.80;72.83;100165.56;1471390;89;20291;-86
2022/07/15 06:51:09;;;;;;;;;;;;;;;21.73;72.52;100188.55;1462823;89;21050;-85
2022/07/15 06:53:35;;;;;;;;;;;;;;;21.72;72.05;100194.15;1460445;89;20725;-85
2022/07/15 06:56:01;;;;;;;;;;;;;;;21.86;69.44;100197.78;1462626;89;20366;-85
2022/07/15 06:58:27;;;;;;;;;;;;;;;22.12;69.92;100200.36;1443179;89;20233;-85
2022/07/15 07:00:53;;;;;;;;;;;;;;;22.31;67.71;100207.38;1464033;89;20271;-85
2022/07/15 07:03:19;;;;;;;;;;;;;;;22.52;66.89;100235.14;1473676;89;20232;-85
2022/07/15 07:05:45;;;;;;;;;;;;;;;22.57;65.33;100243.08;1464774;89;20344;-84
2022/07/15 07:08:11;;;;;;;;;;;;;;;22.58;64.51;100264.95;1468054;89;20307;-83
2022/07/15 07:10:37;;;;;;;;;;;;;;;22.60;64.60;100259.62;1463237;89;20299;-83
2022/07/15 07:13:02;;;;;;;;;;;;;;;22.70;64.60;100257.69;1466132;89;20315;-84
2022/07/15 07:15:28;;;;;;;;;;;;;;;22.97;64.51;100262.19;1462644;89;20798;-84
2022/07/15 07:17:54;;;;;;;;;;;;;;;23.19;63.15;100259.20;1467044;88;20292;-84
2022/07/15 07:20:21;;;;;;;;;;;;;;;23.52;63.85;100257.77;1464655;89;20894;-84
2022/07/15 07:22:46;;;;;;;;;;;;;;;23.86;62.21;100265.55;1470460;89;20463;-84
2022/07/15 07:25:12;;;;;;;;;;;;;;;24.07;60.92;100274.87;1456750;89;20314;-84
2022/07/15 07:27:38;;;;;;;;;;;;;;;24.16;59.36;100275.84;1460213;89;20858;-84
2022/07/15 07:30:06;;;;;;;;;;;;;;;24.26;57.36;100255.23;1466371;89;20292;-84
2022/07/15 07:32:32;;;;;;;;;;;;;;;24.47;57.74;100248.88;1464756;89;20278;-84
2022/07/15 07:34:58;;;;;;;;;;;;;;;24.57;57.48;100249.06;1469329;89;20298;-84
2022/07/15 07:37:26;;;;;;;;;;;;;;;24.61;56.54;100216.92;1461416;89;20807;-84
2022/07/15 07:39:52;;;;;;;;;;;;;;;24.61;55.79;100170.93;1433251;90;20310;-84
2022/07/15 07:42:19;;;;;;;;;;;;;;;24.55;56.06;100160.56;1438633;90;20347;-86
2022/07/15 07:44:46;;;;;;;;;;;;;;;24.51;56.73;100137.75;1434816;91;20763;-84
2022/07/15 07:47:12;;;;;;;;;;;;;;;24.25;56.98;100141.36;1444181;91;20347;-84
2022/07/15 07:49:38;;;;;;;;;;;;;;;24.18;56.31;100152.87;1412404;91;20854;-84
2022/07/15 07:52:04;;;;;;;;;;;;;;;24.24;56.34;100157.30;1436759;90;20280;-84
2022/07/15 07:54:32;;;;;;;;;;;;;;;24.24;56.56;100172.18;1433171;91;20257;-84
2022/07/15 07:56:58;;;;;;;;;;;;;;;24.24;55.50;100201.92;1436339;90;20295;-84
2022/07/15 07:59:24;;;;;;;;;;;;;;;24.36;55.21;100236.20;1441997;89;20285;-85
2022/07/15 08:01:50;;;;;;;;;;;;;;;24.35;54.33;100265.67;1433928;90;20301;-84
2022/07/15 08:04:16;;;;;;;;;;;;;;;24.48;52.92;100276.20;1449561;90;20249;-86
2022/07/15 08:06:42;;;;;;;;;;;;;;;24.60;51.24;100274.78;1427953;89;20288;-85
2022/07/15 08:09:07;;;;;;;;;;;;;;;24.70;49.94;100278.50;1428519;90;20205;-84
2022/07/15 08:11:33;;;;;;;;;;;;;;;24.90;49.99;100267.73;1437723;90;20832;-86
2022/07/15 08:13:59;;;;;;;;;;;;;;;24.94;48.88;100262.09;1427342;91;20302;-85
2022/07/15 08:16:25;;;;;;;;;;;;;;;25.20;49.11;100269.60;1432141;91;20244;-85
2022/07/15 08:18:53;;;;;;;;;;;;;;;25.34;48.71;100266.52;1433423;90;20278;-85
2022/07/15 08:21:19;;;;;;;;;;;;;;;25.63;48.11;100261.77;1412987;90;20390;-85
2022/07/15 08:23:45;;;;;;;;;;;;;;;25.60;47.53;100257.67;1423560;91;20833;-86
2022/07/15 08:26:13;;;;;;;;;;;;;;;25.62;47.19;100254.72;1421144;91;20363;-86
2022/07/15 08:28:38;;;;;;;;;;;;;;;25.55;46.68;100263.05;1431514;91;20308;-86
2022/07/15 08:31:04;;;;;;;;;;;;;;;25.65;47.59;100257.73;1414602;91;20424;-84
2022/07/15 08:33:30;;;;;;;;;;;;;;;25.58;47.69;100259.83;1434478;91;20618;-84
2022/07/15 08:35:56;;;;;;;;;;;;;;;25.60;47.07;100263.09;1436157;91;20950;-85
2022/07/15 08:38:22;;;;;;;;;;;;;;;25.63;47.41;100257.16;1414659;92;20302;-84
2022/07/15 08:40:48;;;;;;;;;;;;;;;25.51;46.82;100261.08;1429634;92;20319;-84
2022/07/15 08:43:14;;;;;;;;;;;;;;;25.49;47.94;100261.84;1442032;90;20243;-84
2022/07/15 08:45:43;;;;;;;;;;;;;;;25.44;46.69;100262.62;1417371;92;21030;-84
2022/07/15 08:48:08;;;;;;;;;;;;;;;25.64;47.38;100271.02;1421107;92;20421;-84
2022/07/15 08:50:36;;;;;;;;;;;;;;;25.78;47.64;100280.11;1417281;90;20354;-85
2022/07/15 08:53:03;;;;;;;;;;;;;;;25.78;46.84;100284.18;1417927;91;20310;-84
2022/07/15 08:55:29;;;;;;;;;;;;;;;25.84;46.51;100275.91;1421580;92;20281;-84
2022/07/15 08:57:57;;;;;;;;;;;;;;;25.87;46.44;100277.30;1430421;91;20432;-84
2022/07/15 09:00:30;;;;;;;;;;;;;;;25.74;45.94;100274.92;1431462;91;20403;-84
2022/07/15 09:02:59;;;;;;;;;;;;;;;25.64;46.88;100279.15;1534852;89;20894;-84
2022/07/15 09:05:30;;;;;;;;;;;;;;;25.46;47.23;100269.94;1504734;89;21140;-88
2022/07/15 09:08:00;;;;;;;;;;;;;;;25.55;47.40;100282.02;1435166;90;20286;-89
2022/07/15 09:10:55;;;;;;;;;;;;;;;25.89;46.42;100275.14;1469924;89;20410;-88
2022/07/15 09:13:38;;;;;;;;;;;;;;;26.24;44.77;100272.55;1468386;89;20893;-88
2022/07/15 09:16:13;;;;;;;;;;;;;;;26.53;43.91;100280.77;1469363;89;20298;-88
2022/07/15 09:18:40;;;;;;;;;;;;;;;26.16;42.45;100286.59;1450504;89;20450;-88
2022/07/15 09:21:25;;;;;;;;;;;;;;;26.21;43.31;100290.18;1422610;91;20388;-88
2022/07/15 09:23:53;;;;;;;;;;;;;;;26.13;42.62;100283.03;1420147;91;20296;-88
2022/07/15 09:26:36;;;;;;;;;;;;;;;25.79;42.82;100292.61;1507811;89;20266;-88
2022/07/15 09:33:33;;;;;;;;;;;;;;;25.83;43.37;100308.68;1503545;91;20972;-88
2022/07/15 09:34:27;;;;;;;;;;;;;;;25.91;43.83;100315.56;1479867;89;20388;-84
2022/07/15 09:37:15;;;;;;;;;;;;;;;26.08;43.12;100329.34;1372600;89;20236;-85
2022/07/15 09:42:32;;;;;;;;;;;;;;;26.68;41.57;100318.63;1441167;89;20838;-84
2022/07/15 09:44:58;;;;;;;;;;;;;;;26.60;40.90;100318.55;1373027;88;20241;-85
2022/07/15 09:47:25;;;;;;;;;;;;;;;26.90;41.44;100312.59;1476490;91;20250;-84
2022/07/15 09:49:51;;;;;;;;;;;;;;;27.08;41.26;100309.20;1484330;91;21129;-84
2022/07/15 09:52:16;;;;;;;;;;;;;;;27.15;40.64;100313.86;1498727;91;20414;-82
2022/07/15 09:54:51;;;;;;;;;;;;;;;27.51;40.06;100320.95;1549497;88;20248;-85
2022/07/15 09:57:23;;;;;;;;;;;;;;;27.76;39.62;100291.70;1533714;89;20220;-86
2022/07/15 09:59:52;;;;;;;;;;;;;;;27.97;38.97;100286.67;1509520;90;20232;-90
2022/07/15 10:02:32;;;;;;;;;;;;;;;;;;;;;
2022/07/15 10:04:55;;;;;;;;;;;;;;;27.66;38.06;100315.04;1355759;90;20348;-85
2022/07/15 10:07:27;;;;;;;;;;;;;;;27.50;37.51;100311.13;1445265;91;21211;-86
2022/07/15 10:09:55;;;;;;;;;;;;;;;27.54;37.47;100313.08;1500140;92;20341;-85
2022/07/15 10:12:26;;;;;;;;;;;;;;;26.98;37.55;100310.73;1395636;91;20264;-86
2022/07/15 10:15:12;;;;;;;;;;;;;;;26.94;37.57;100315.06;1517996;91;20755;-85
2022/07/15 10:18:09;;;;;;;;;;;;;;;27.03;38.49;100311.87;1515684;91;20312;-86
2022/07/15 10:21:17;;;;;;;;;;;;;;;26.70;38.74;100316.45;1411886;92;20305;-85
2022/07/15 10:24:01;;;;;;;;;;;;;;;26.58;39.14;100320.69;1399078;93;21043;-85
2022/07/15 10:26:57;;;;;;;;;;;;;;;26.25;39.05;100325.74;1390043;92;20403;-85
2022/07/15 10:29:24;;;;;;;;;;;;;;;26.41;39.59;100326.72;1423564;91;20347;-85
2022/07/15 10:31:56;;;;;;;;;;;;;;;26.67;38.84;100329.19;1413370;91;20324;-85
2022/07/15 10:34:23;;;;;;;;;;;;;;;26.72;39.51;100328.70;1445271;90;20307;-85
2022/07/15 10:36:53;;;;;;;;;;;;;;;26.68;37.84;100326.77;1444197;88;20261;-87
2022/07/15 10:39:21;;;;;;;;;;;;;;;26.30;37.70;100328.52;1466678;86;20310;-84
2022/07/15 10:41:52;;;;;;;;;;;;;;;26.51;38.85;100326.33;1488722;86;20417;-85
2022/07/15 10:44:19;;;;;;;;;;;;;;;26.79;39.13;100328.52;1470310;88;20289;-85
2022/07/15 10:46:45;;;;;;;;;;;;;;;26.95;36.87;100335.70;1506638;86;20272;-85
2022/07/15 10:49:15;;;;;;;;;;;;;;;26.64;37.20;100335.13;1481199;86;20332;-86
2022/07/15 10:51:44;;;;;;;;;;;;;;;26.70;38.18;100332.74;1479146;88;21075;-86
2022/07/15 10:54:12;;;;;;;;;;;;;;;26.68;37.61;100326.77;1477767;88;20313;-86
2022/07/15 10:56:48;;;;;;;;;;;;;;;26.67;38.97;100317.81;1441666;88;20320;-86
2022/07/15 10:59:16;;;;;;;;;;;;;;;26.68;38.13;100307.77;1504697;86;20801;-86
2022/07/15 11:01:46;;;;;;;;;;;;;;;26.58;38.38;100291.37;1489143;86;20862;-86
2022/07/15 11:04:21;;;;;;;;;;;;;;;26.61;38.85;100274.58;1474117;86;20388;-86
2022/07/15 11:07:10;;;;;;;;;;;;;;;26.50;38.46;100263.64;1465122;86;20811;-91
2022/07/15 11:09:56;;;;;;;;;;;;;;;26.70;39.67;100283.88;1469330;86;20282;-90
2022/07/15 11:12:25;;;;;;;;;;;;;;;26.83;39.56;100305.19;1491009;86;20332;-90
2022/07/15 11:15:12;;;;;;;;;;;;;;;26.84;38.82;100295.95;1492867;86;20993;-91
2022/07/15 11:17:42;;;;;;;;;;;;;;;26.88;39.15;100286.77;1467506;86;20402;-90
2022/07/15 11:20:17;;;;;;;;;;;;;;;26.95;39.83;100281.39;1476034;86;20863;-91
2022/07/15 11:22:47;;;;;;;;;;;;;;;27.33;40.04;100284.13;1473417;86;20261;-90
2022/07/15 11:25:32;;;;;;;;;;;;;;;27.67;39.45;100290.03;1479643;86;21011;-90
2022/07/15 11:28:01;;;;;;;;;;;;;;;28.14;39.24;100287.82;1507895;86;20831;-89
2022/07/15 11:30:42;;;;;;;;;;;;;;;28.30;35.89;100292.20;1499378;86;20332;-90
2022/07/15 11:33:10;;;;;;;;;;;;;;;28.18;36.42;100295.70;1484296;86;20409;-90
2022/07/15 11:35:50;;;;;;;;;;;;;;;28.18;36.38;100301.15;1458884;88;20373;-89
2022/07/15 11:38:17;;;;;;;;;;;;;;;28.26;36.74;100307.98;1489646;86;20294;-90
2022/07/15 11:46:17;;;;;;;;;;;;;;;28.79;36.41;100300.46;1488242;86;20798;-89
2022/07/15 11:48:43;;;;;;;;;;;;;;;29.17;35.63;100307.28;1503277;86;20272;-90
2022/07/15 11:51:10;;;;;;;;;;;;;;;29.10;35.72;100312.21;1478312;86;20517;-91
2022/07/15 11:53:42;;;;;;;;;;;;;;;28.91;35.07;100311.09;1476357;86;20237;-91
2022/07/15 11:56:10;;;;;;;;;;;;;;;28.62;35.51;100319.78;1494641;86;20375;-91
2022/07/15 11:58:42;;;;;;;;;;;;;;;28.31;35.91;100318.34;1484726;86;21023;-91
2022/07/15 12:01:12;;;;;;;;;;;;;;;28.09;36.48;100321.25;1489003;86;20312;-91
2022/07/15 12:03:41;;;;;;;;;;;;;;;28.05;36.75;100315.23;1479686;86;20424;-90
2022/07/15 12:06:21;;;;;;;;;;;;;;;27.71;36.15;100315.63;1493722;86;20749;-90
2022/07/15 12:08:56;;;;;;;;;;;;;;;27.56;37.39;100316.33;1477729;86;20343;-91
2022/07/15 12:11:27;;;;;;;;;;;;;;;27.55;37.83;100312.53;1504297;86;20265;-90
2022/07/15 12:13:58;;;;;;;;;;;;;;;28.00;37.70;100307.89;1484907;86;20384;-90
2022/07/15 12:16:29;;;;;;;;;;;;;;;28.37;35.03;100304.20;1484880;86;20808;-91
2022/07/15 12:18:57;;;;;;;;;;;;;;;28.69;35.96;100294.48;1489844;86;20265;-91
2022/07/15 12:21:23;;;;;;;;;;;;;;;28.87;33.46;100290.95;1510032;86;20319;-88
2022/07/15 12:24:10;;;;;;;;;;;;;;;29.06;34.45;100291.22;1493979;86;20282;-90
2022/07/15 12:26:40;;;;;;;;;;;;;;;29.16;33.53;100287.95;1497318;86;20422;-88
2022/07/15 12:29:08;;;;;;;;;;;;;;;29.29;33.73;100278.93;1509181;86;20296;-90
2022/07/15 12:31:35;;;;;;;;;;;;;;;29.19;33.99;100277.86;1444618;86;20302;-90
2022/07/15 12:34:01;;;;;;;;;;;;;;;29.06;34.79;100282.53;1498629;86;20918;-90
2022/07/15 12:36:30;;;;;;;;;;;;;;;29.08;33.88;100280.33;1486583;86;20268;-89
2022/07/15 12:39:12;;;;;;;;;;;;;;;29.32;33.77;100270.20;1505649;86;20496;-90
2022/07/15 12:41:39;;;;;;;;;;;;;;;29.53;32.88;100268.26;1467147;86;20281;-89
2022/07/15 12:44:07;;;;;;;;;;;;;;;29.68;32.21;100269.03;1507170;86;20831;-90
2022/07/15 12:47:04;;;;;;;;;;;;;;;29.62;31.27;100267.42;1490130;86;20350;-90
2022/07/15 12:49:46;;;;;;;;;;;;;;;29.64;31.42;100258.98;1474847;86;20380;-91
2022/07/15 12:52:31;;;;;;;;;;;;;;;30.07;33.20;100256.05;1482635;86;20391;-91
2022/07/15 12:54:57;;;;;;;;;;;;;;;30.16;31.50;100258.19;1482536;86;20356;-90
2022/07/15 12:57:27;;;;;;;;;;;;;;;30.16;31.49;100257.64;1469844;86;20291;-90
2022/07/15 12:59:59;;;;;;;;;;;;;;;30.21;30.23;100252.19;1469674;86;20422;-90
2022/07/15 13:02:26;;;;;;;;;;;;;;;29.71;29.97;100251.30;1488601;86;20461;-90
2022/07/15 13:04:52;;;;;;;;;;;;;;;29.39;31.13;100247.02;1487295;87;20783;-91